Terminal Aerodrome Forecast
Issued by NWS Albany, NY

Home | Current Version | Previous Version | Text Only | Print | Product List | Glossary On
Versions: 1 2 3 4 5 6 7 8 9 10 11 12 13 14 15 16 17
000
FTUS41 KALY 041133
TAFPOU
TAF
KPOU 041133Z 0412/0512 00000KT P6SM VCSH SCT040 OVC090
     FM041400 VRB03KT P6SM -SHRA SCT020 OVC040
     FM041500 VRB03KT 5SM -RA BR OVC020
     FM042100 VRB03KT P6SM VCSH BKN060 OVC090
     FM050100 00000KT P6SM SCT060
     FM050800 00000KT 3SM BR SCT005=

USA.gov is the U.S. government's official web portal to all federal, state and local government web resources and services.